Time;durP1;ratioP1;P1;durP2;ratioP2;P2;SDS_P1;SDS_P2;PMS_P1;PMS_P2;Temp;Humidity;BMP_temperature;BMP_pressure;BME280_temperature;BME280_humidity;BME280_pressure;Samples;Min_cycle;Max_cycle;Signal;HPM_P1;HPM_P2
2021/12/02 00:01:13;;;;;;;9.53;8.83;;;5.80;99.90;;;;;;5035001;28;20588;-64
2021/12/02 00:03:40;;;;;;;8.93;8.33;;;5.80;99.90;;;;;;5046766;28;20203;-64
2021/12/02 00:06:13;;;;;;;9.63;8.93;;;5.80;99.90;;;;;;5032774;28;20175;-65
2021/12/02 00:08:39;;;;;;;10.07;9.30;;;5.80;99.90;;;;;;5036837;28;20711;-63
2021/12/02 00:11:05;;;;;;;13.13;9.97;;;5.80;99.90;;;;;;5052470;28;20264;-64
2021/12/02 00:13:42;;;;;;;10.40;9.37;;;5.70;99.90;;;;;;5048913;28;20195;-63
2021/12/02 00:21:17;;;;;;;10.37;9.33;;;5.70;99.90;;;;;;5051901;28;20206;-64
2021/12/02 00:24:01;;;;;;;10.67;9.73;;;5.70;99.90;;;;;;5031976;28;20241;-64
2021/12/02 00:26:28;;;;;;;10.33;9.40;;;5.70;99.90;;;;;;5032834;28;20290;-64
2021/12/02 00:28:56;;;;;;;11.23;10.23;;;5.70;99.90;;;;;;5014614;28;20660;-63
2021/12/02 00:31:30;;;;;;;10.87;9.97;;;5.70;99.90;;;;;;5032426;28;20213;-65
2021/12/02 00:33:59;;;;;;;10.60;9.80;;;5.70;99.90;;;;;;5051155;28;20225;-64
2021/12/02 00:36:26;;;;;;;10.57;9.67;;;5.70;99.90;;;;;;5050371;28;20203;-64
2021/12/02 00:38:54;;;;;;;11.83;10.67;;;5.70;99.90;;;;;;5051896;28;20183;-64
2021/12/02 00:41:22;;;;;;;11.20;9.93;;;5.80;99.90;;;;;;5050703;28;20179;-64
2021/12/02 00:43:50;;;;;;;10.80;9.97;;;5.80;99.90;;;;;;5031666;28;20207;-64
2021/12/02 00:46:20;;;;;;;13.20;9.80;;;5.80;99.90;;;;;;5031932;28;20171;-63
2021/12/02 00:48:46;;;;;;;10.37;9.50;;;5.80;99.90;;;;;;5031805;28;20175;-64
2021/12/02 00:51:13;;;;;;;12.13;10.93;;;5.80;99.90;;;;;;5046024;28;20194;-63
2021/12/02 00:53:44;;;;;;;11.97;10.87;;;5.80;99.90;;;;;;5051204;28;20202;-64
2021/12/02 00:56:12;;;;;;;12.20;11.20;;;5.80;99.90;;;;;;5037928;28;20195;-64
2021/12/02 00:58:38;;;;;;;13.00;11.87;;;5.80;99.90;;;;;;5031851;28;20178;-64
2021/12/02 01:01:04;;;;;;;15.83;11.13;;;5.70;99.90;;;;;;5043403;28;20175;-64
2021/12/02 01:03:34;;;;;;;10.60;9.70;;;5.70;99.90;;;;;;5051304;28;20195;-64
2021/12/02 01:06:00;;;;;;;17.60;11.50;;;5.70;99.90;;;;;;5040542;28;20599;-64
2021/12/02 01:08:27;;;;;;;11.87;10.60;;;5.70;99.90;;;;;;5031715;28;20175;-64
2021/12/02 01:10:53;;;;;;;12.50;11.20;;;5.70;99.90;;;;;;5040325;28;21086;-63
2021/12/02 01:13:19;;;;;;;13.30;11.90;;;5.70;99.90;;;;;;5051127;28;20594;-64
2021/12/02 01:15:45;;;;;;;11.57;10.00;;;5.70;99.90;;;;;;5043939;28;20522;-63
2021/12/02 01:18:11;;;;;;;12.97;10.27;;;5.70;99.90;;;;;;5035010;28;20173;-64
2021/12/02 01:20:39;;;;;;;12.53;11.33;;;5.70;99.90;;;;;;5051089;28;20257;-65
2021/12/02 01:23:06;;;;;;;11.67;10.47;;;5.70;99.90;;;;;;5048902;28;20199;-64
2021/12/02 01:25:32;;;;;;;11.47;10.27;;;5.70;99.90;;;;;;5031557;28;20186;-64
2021/12/02 01:27:59;;;;;;;10.40;9.40;;;5.70;99.90;;;;;;5031798;28;20180;-64
2021/12/02 01:30:29;;;;;;;10.33;9.43;;;5.70;99.90;;;;;;5051338;28;20171;-64
2021/12/02 01:33:03;;;;;;;11.67;10.43;;;5.70;99.90;;;;;;5050605;28;20236;-64
2021/12/02 01:35:31;;;;;;;11.13;10.13;;;5.80;99.90;;;;;;5031569;28;20163;-62
2021/12/02 01:37:57;;;;;;;10.77;9.97;;;5.80;99.90;;;;;;5031243;28;20167;-63
2021/12/02 01:40:24;;;;;;;10.93;10.10;;;5.80;99.90;;;;;;5050364;28;20205;-63
2021/12/02 01:42:55;;;;;;;12.27;11.27;;;5.70;99.90;;;;;;5050597;28;20190;-64
2021/12/02 01:45:24;;;;;;;10.80;9.93;;;5.80;99.90;;;;;;5039952;28;20183;-63
2021/12/02 01:47:52;;;;;;;14.17;10.70;;;5.80;99.90;;;;;;5055023;28;20194;-64
2021/12/02 01:50:21;;;;;;;11.23;10.43;;;5.80;99.90;;;;;;5055199;28;20167;-64
2021/12/02 01:52:54;;;;;;;11.17;10.37;;;5.80;99.90;;;;;;5054544;28;20191;-64
2021/12/02 01:55:20;;;;;;;11.47;10.37;;;5.90;99.90;;;;;;5054412;28;20177;-64
2021/12/02 01:58:14;;;;;;;11.83;10.93;;;5.80;99.90;;;;;;5054928;28;20171;-63
2021/12/02 02:00:46;;;;;;;12.13;11.03;;;5.80;99.90;;;;;;5017608;28;20299;-64
2021/12/02 02:03:14;;;;;;;17.57;11.27;;;5.80;99.90;;;;;;5034743;28;20278;-64
2021/12/02 02:05:40;;;;;;;12.90;11.83;;;5.80;99.90;;;;;;5052290;28;20584;-64
2021/12/02 02:08:11;;;;;;;13.57;11.77;;;5.80;99.90;;;;;;5055032;28;20655;-63
2021/12/02 02:10:39;;;;;;;11.80;10.70;;;5.80;99.90;;;;;;5037410;28;20203;-64
2021/12/02 02:13:10;;;;;;;12.70;11.50;;;5.80;99.90;;;;;;5041641;28;20218;-64
2021/12/02 02:15:37;;;;;;;12.60;11.43;;;5.80;99.90;;;;;;5054797;28;20672;-64
2021/12/02 02:20:38;;;;;;;11.33;10.40;;;5.80;99.90;;;;;;5034617;28;20172;-64
2021/12/02 02:23:06;;;;;;;13.40;11.20;;;5.80;99.90;;;;;;5041727;28;20720;-63
2021/12/02 02:25:32;;;;;;;13.20;11.90;;;5.70;99.90;;;;;;5054391;28;20175;-64
2021/12/02 02:27:58;;;;;;;12.10;11.17;;;5.70;99.90;;;;;;5048131;28;20543;-64
2021/12/02 02:30:24;;;;;;;11.63;10.73;;;5.70;99.90;;;;;;5034393;28;20167;-64
2021/12/02 02:32:50;;;;;;;12.60;11.37;;;5.60;99.90;;;;;;5060034;22;20252;-64
2021/12/02 02:35:15;;;;;;;10.70;9.87;;;5.60;99.90;;;;;;5033752;28;20207;-65
2021/12/02 02:37:41;;;;;;;11.93;10.83;;;5.50;99.90;;;;;;5034058;28;20258;-66
2021/12/02 02:40:10;;;;;;;10.63;9.67;;;5.50;99.90;;;;;;5034148;28;20211;-66
2021/12/02 02:42:36;;;;;;;10.30;9.50;;;5.40;99.90;;;;;;5033679;28;20175;-68
2021/12/02 02:45:03;;;;;;;9.73;9.03;;;5.40;99.90;;;;;;5014387;28;20172;-66
2021/12/02 02:47:29;;;;;;;11.17;9.97;;;5.40;99.90;;;;;;5013965;28;20661;-65
2021/12/02 02:49:55;;;;;;;10.13;9.33;;;5.40;99.90;;;;;;5014122;28;20183;-66
2021/12/02 02:52:21;;;;;;;11.63;10.53;;;5.40;99.90;;;;;;5014121;28;20258;-68
2021/12/02 02:54:48;;;;;;;11.70;10.60;;;5.40;99.90;;;;;;4996131;28;20200;-67
2021/12/02 02:57:16;;;;;;;11.53;10.53;;;5.40;99.90;;;;;;5013728;28;20180;-65
2021/12/02 03:05:22;;;;;;;13.23;12.00;;;5.40;99.90;;;;;;5013576;28;20258;-66
2021/12/02 03:07:46;;;;;;;12.97;11.93;;;5.40;99.90;;;;;;5011591;28;20222;-67
2021/12/02 03:17:43;;;;;;;11.57;10.63;;;5.30;99.90;;;;;;5013631;28;20172;-67
2021/12/02 03:20:10;;;;;;;12.03;11.00;;;5.30;99.90;;;;;;5014000;28;20172;-66
2021/12/02 03:22:36;;;;;;;14.87;11.87;;;5.30;99.90;;;;;;5013305;28;20169;-65
2021/12/02 03:25:04;;;;;;;12.60;9.97;;;5.30;99.90;;;;;;5014341;28;20719;-65
2021/12/02 03:27:29;;;;;;;10.40;9.60;;;5.30;99.90;;;;;;5013416;28;20168;-65
2021/12/02 03:29:55;;;;;;;8.93;8.13;;;5.30;99.90;;;;;;5013614;28;20711;-66
2021/12/02 03:32:21;;;;;;;8.43;7.90;;;5.30;99.90;;;;;;5013098;28;20203;-68
2021/12/02 03:34:46;;;;;;;9.30;8.73;;;5.30;99.90;;;;;;5013151;28;20200;-65
2021/12/02 03:37:12;;;;;;;9.40;8.67;;;5.30;99.90;;;;;;5013498;28;20211;-66
2021/12/02 03:39:38;;;;;;;9.10;8.60;;;5.20;99.90;;;;;;5013442;28;20168;-67
2021/12/02 03:42:05;;;;;;;9.50;8.90;;;5.20;99.90;;;;;;5012721;28;20184;-66
2021/12/02 03:44:31;;;;;;;9.17;8.50;;;5.20;99.90;;;;;;5013358;28;20196;-68
2021/12/02 03:46:56;;;;;;;11.37;10.37;;;5.20;99.90;;;;;;5012922;28;20219;-66
2021/12/02 03:49:22;;;;;;;10.27;9.47;;;5.10;99.90;;;;;;5013034;28;20233;-65
2021/12/02 03:51:48;;;;;;;9.83;9.13;;;5.10;99.90;;;;;;4995599;28;20207;-64
2021/12/02 03:54:14;;;;;;;9.23;8.67;;;5.10;99.90;;;;;;4995088;28;20230;-66
2021/12/02 03:56:39;;;;;;;8.93;8.43;;;5.10;99.90;;;;;;5013625;28;20656;-65
2021/12/02 03:59:05;;;;;;;7.73;7.33;;;5.10;99.90;;;;;;5012635;28;20180;-65
2021/12/02 04:01:31;;;;;;;9.17;8.47;;;5.00;99.90;;;;;;5013151;28;20203;-65
2021/12/02 04:03:56;;;;;;;8.23;7.80;;;5.00;99.90;;;;;;5012416;28;20227;-65
2021/12/02 04:06:22;;;;;;;8.80;8.30;;;5.00;99.90;;;;;;5013279;28;20282;-65
2021/12/02 04:08:59;;;;;;;8.43;7.90;;;5.00;99.90;;;;;;5011585;28;20934;-66
2021/12/02 04:14:35;;;;;;;8.30;7.80;;;4.80;99.90;;;;;;5012276;28;20511;-65
2021/12/02 04:16:52;;;;;;;7.63;7.23;;;4.70;99.90;;;;;;5011385;28;20214;-68
2021/12/02 04:19:18;;;;;;;7.73;7.33;;;4.70;99.90;;;;;;5012599;28;20180;-67
2021/12/02 04:21:43;;;;;;;7.20;6.90;;;4.70;99.90;;;;;;5012824;28;20715;-65
2021/12/02 04:24:09;;;;;;;7.97;7.23;;;4.60;99.90;;;;;;5012410;28;20236;-64
2021/12/02 04:26:35;;;;;;;9.17;7.37;;;4.60;99.90;;;;;;5013350;28;20199;-63
2021/12/02 04:29:00;;;;;;;8.00;7.50;;;4.60;99.90;;;;;;5012430;28;20215;-65
2021/12/02 04:31:26;;;;;;;8.30;7.80;;;4.60;99.90;;;;;;5012312;28;20204;-65
2021/12/02 04:33:52;;;;;;;8.50;8.10;;;4.60;99.90;;;;;;5011935;28;20195;-66
2021/12/02 04:36:17;;;;;;;8.00;7.60;;;4.60;99.90;;;;;;5012479;28;20168;-65
2021/12/02 04:38:43;;;;;;;10.87;9.97;;;4.60;99.90;;;;;;5011866;28;20216;-62
2021/12/02 04:41:09;;;;;;;10.70;9.90;;;4.60;99.90;;;;;;5012339;28;20700;-65
2021/12/02 04:43:34;;;;;;;10.83;9.93;;;4.60;99.90;;;;;;5011844;28;20279;-65
2021/12/02 04:46:00;;;;;;;13.80;10.73;;;4.60;99.90;;;;;;5012272;28;20187;-66
2021/12/02 04:48:25;;;;;;;10.50;9.50;;;4.60;99.90;;;;;;5012069;28;20593;-66
2021/12/02 04:50:52;;;;;;;11.20;10.23;;;4.70;99.90;;;;;;5011954;28;20564;-68
2021/12/02 04:53:18;;;;;;;9.97;9.17;;;4.70;99.90;;;;;;4994090;28;20199;-66
2021/12/02 04:55:44;;;;;;;11.87;10.90;;;4.70;99.90;;;;;;5012000;28;20172;-67
2021/12/02 04:58:10;;;;;;;10.23;9.57;;;4.70;99.90;;;;;;5011927;28;20179;-64
2021/12/02 05:00:35;;;;;;;9.57;8.67;;;4.70;99.90;;;;;;5012137;28;20172;-68
2021/12/02 05:03:01;;;;;;;9.57;8.87;;;4.70;99.90;;;;;;5011404;28;20203;-68
2021/12/02 05:05:27;;;;;;;8.57;8.07;;;4.70;99.90;;;;;;5012257;28;20173;-69
2021/12/02 05:07:54;;;;;;;9.20;8.40;;;4.60;99.90;;;;;;5011590;28;20545;-68
2021/12/02 05:10:20;;;;;;;8.87;8.00;;;4.70;99.90;;;;;;5011995;28;20259;-68
2021/12/02 05:12:46;;;;;;;9.23;8.43;;;4.70;99.90;;;;;;5011358;28;20263;-67
2021/12/02 05:15:12;;;;;;;8.97;8.17;;;4.70;99.90;;;;;;5012023;28;20172;-67
2021/12/02 05:17:38;;;;;;;8.43;7.80;;;4.80;99.90;;;;;;4994095;28;20179;-68
2021/12/02 05:20:05;;;;;;;8.43;7.83;;;4.70;99.90;;;;;;5011767;28;20556;-68
2021/12/02 05:22:31;;;;;;;8.77;8.27;;;4.60;99.90;;;;;;5011546;28;20575;-68
2021/12/02 05:24:56;;;;;;;8.20;7.70;;;4.60;99.90;;;;;;5012148;28;20192;-68
2021/12/02 05:27:22;;;;;;;7.70;7.30;;;4.60;99.90;;;;;;5011853;28;20218;-68
2021/12/02 05:29:47;;;;;;;8.00;7.43;;;4.60;99.90;;;;;;5011907;28;20561;-68
2021/12/02 05:32:13;;;;;;;9.30;8.43;;;4.60;99.90;;;;;;5011287;28;20677;-67
2021/12/02 05:34:39;;;;;;;9.43;8.67;;;4.60;99.90;;;;;;5011629;28;20211;-68
2021/12/02 05:37:04;;;;;;;8.30;7.90;;;4.60;99.90;;;;;;5011346;28;20172;-66
2021/12/02 05:39:30;;;;;;;8.53;8.03;;;4.60;99.90;;;;;;5011848;28;20230;-64
2021/12/02 05:41:56;;;;;;;8.50;7.90;;;4.60;99.90;;;;;;5011090;28;20262;-65
2021/12/02 05:44:21;;;;;;;9.80;9.27;;;4.60;99.90;;;;;;5011729;28;20576;-65
2021/12/02 05:46:47;;;;;;;9.10;8.50;;;4.60;99.90;;;;;;5011402;28;20250;-68
2021/12/02 05:49:13;;;;;;;10.07;9.20;;;4.60;99.90;;;;;;5011627;28;20204;-66
2021/12/02 05:51:40;;;;;;;9.20;8.60;;;4.50;99.90;;;;;;5010893;28;20211;-66
2021/12/02 05:54:06;;;;;;;9.33;8.33;;;4.50;99.90;;;;;;4997604;28;20197;-66
2021/12/02 05:56:32;;;;;;;8.90;8.20;;;4.50;99.90;;;;;;4991995;28;20180;-67
2021/12/02 05:58:57;;;;;;;8.30;7.70;;;4.50;99.90;;;;;;5000761;28;20176;-65
2021/12/02 06:01:23;;;;;;;8.97;8.23;;;4.50;99.90;;;;;;5011605;28;20534;-66
2021/12/02 06:03:49;;;;;;;8.60;8.10;;;4.50;99.90;;;;;;5010712;28;20215;-66
2021/12/02 06:06:16;;;;;;;8.40;7.90;;;4.50;99.90;;;;;;4994115;28;20184;-67
2021/12/02 06:08:42;;;;;;;8.20;7.50;;;4.50;99.90;;;;;;5011261;28;20187;-67
2021/12/02 06:11:08;;;;;;;8.00;7.60;;;4.50;99.90;;;;;;5010830;28;20359;-66
2021/12/02 06:13:33;;;;;;;7.93;7.30;;;4.40;99.90;;;;;;5009638;28;20192;-67
2021/12/02 06:15:59;;;;;;;8.37;7.87;;;4.40;99.90;;;;;;5011442;28;20179;-67
2021/12/02 06:18:24;;;;;;;8.70;8.20;;;4.40;99.90;;;;;;5011246;28;20672;-68
2021/12/02 06:20:56;;;;;;;8.00;7.30;;;4.30;99.90;;;;;;5011048;28;20176;-66
2021/12/02 06:23:22;;;;;;;7.43;7.03;;;4.30;99.90;;;;;;5010843;28;20279;-68
2021/12/02 06:25:48;;;;;;;7.97;7.47;;;4.30;99.90;;;;;;5011316;28;20231;-68
2021/12/02 06:28:15;;;;;;;8.13;7.40;;;4.20;99.90;;;;;;5011153;28;20180;-67
2021/12/02 06:30:41;;;;;;;8.67;7.87;;;4.20;99.90;;;;;;5011684;28;20542;-68
2021/12/02 06:33:07;;;;;;;7.53;6.97;;;4.20;99.90;;;;;;5014065;28;20214;-67
2021/12/02 06:35:33;;;;;;;7.60;7.13;;;4.20;99.90;;;;;;5014744;28;20175;-68
2021/12/02 06:37:59;;;;;;;8.63;8.13;;;4.20;99.90;;;;;;5014437;28;20184;-66
2021/12/02 06:40:25;;;;;;;8.50;8.10;;;4.20;99.90;;;;;;5014526;28;20548;-68
2021/12/02 06:42:51;;;;;;;8.97;8.37;;;4.30;99.90;;;;;;5013603;28;20207;-67
2021/12/02 06:45:16;;;;;;;8.90;8.30;;;4.20;99.90;;;;;;5014577;28;20165;-67
2021/12/02 06:47:42;;;;;;;8.70;8.20;;;4.20;99.90;;;;;;5014196;28;20187;-67
2021/12/02 06:50:16;;;;;;;8.70;8.10;;;4.20;99.90;;;;;;5014309;28;20164;-68
2021/12/02 06:52:43;;;;;;;8.50;8.00;;;4.20;99.90;;;;;;5013564;28;20199;-67
2021/12/02 06:55:10;;;;;;;10.53;8.83;;;4.20;99.90;;;;;;5014087;28;20176;-68
2021/12/02 06:57:36;;;;;;;8.60;7.90;;;4.20;99.90;;;;;;5013897;28;20164;-66
2021/12/02 07:00:08;;;;;;;8.97;8.33;;;4.10;99.90;;;;;;5014297;28;20172;-66
2021/12/02 07:02:38;;;;;;;9.13;8.63;;;4.20;99.90;;;;;;5014095;28;20518;-68
2021/12/02 07:05:05;;;;;;;9.83;9.03;;;4.20;99.90;;;;;;5014000;28;20689;-67
2021/12/02 07:07:35;;;;;;;8.63;8.03;;;4.20;99.90;;;;;;5013887;28;20227;-68
2021/12/02 07:10:02;;;;;;;8.23;7.83;;;4.30;99.90;;;;;;5014075;28;20168;-68
2021/12/02 07:12:33;;;;;;;10.20;8.23;;;4.30;99.90;;;;;;5013533;28;20258;-67
2021/12/02 07:15:05;;;;;;;8.57;8.03;;;4.30;99.90;;;;;;5014095;28;20188;-68
2021/12/02 07:17:31;;;;;;;9.13;8.60;;;4.30;99.90;;;;;;5013739;28;20176;-67
2021/12/02 07:19:57;;;;;;;8.30;7.77;;;4.30;99.90;;;;;;5013684;28;20175;-67
2021/12/02 07:22:22;;;;;;;9.17;8.60;;;4.30;99.90;;;;;;5013367;28;20172;-68
2021/12/02 07:24:48;;;;;;;8.27;7.77;;;4.20;99.90;;;;;;5013582;28;20204;-66
2021/12/02 07:27:13;;;;;;;8.40;7.80;;;4.10;99.90;;;;;;5013229;28;20247;-68
2021/12/02 07:29:41;;;;;;;7.63;7.00;;;4.10;99.90;;;;;;5013712;28;20223;-68
2021/12/02 07:32:10;;;;;;;7.40;7.07;;;4.00;99.90;;;;;;5011618;28;20618;-68
2021/12/02 07:34:37;;;;;;;7.83;7.33;;;4.00;99.90;;;;;;5014139;28;20279;-67
2021/12/02 07:37:03;;;;;;;8.37;7.87;;;4.00;99.90;;;;;;5014280;28;20191;-67
2021/12/02 07:39:29;;;;;;;7.57;7.27;;;4.00;99.90;;;;;;5013385;28;20200;-67
2021/12/02 07:41:55;;;;;;;8.10;7.30;;;4.10;99.90;;;;;;4996036;28;20199;-67
2021/12/02 07:44:22;;;;;;;8.23;7.70;;;4.00;99.90;;;;;;5013736;28;20670;-66
2021/12/02 07:46:48;;;;;;;8.33;7.83;;;4.10;99.90;;;;;;5014093;28;20172;-67
2021/12/02 07:49:14;;;;;;;8.07;7.67;;;4.00;99.90;;;;;;5013812;28;20607;-68
2021/12/02 07:51:43;;;;;;;8.00;7.50;;;4.10;99.90;;;;;;5013562;28;20215;-67
2021/12/02 07:54:11;;;;;;;7.37;7.07;;;4.00;99.90;;;;;;5012969;28;20187;-67
2021/12/02 07:56:38;;;;;;;8.40;7.90;;;4.00;99.90;;;;;;5013070;28;20172;-67
2021/12/02 07:59:04;;;;;;;8.93;8.23;;;4.10;99.90;;;;;;5012996;28;20172;-67
2021/12/02 08:01:33;;;;;;;8.90;8.30;;;4.00;99.90;;;;;;5013056;28;20187;-68
2021/12/02 08:03:58;;;;;;;9.10;8.53;;;4.00;99.90;;;;;;5012980;28;20631;-67
2021/12/02 08:06:24;;;;;;;9.20;8.70;;;4.00;99.90;;;;;;5013370;28;20556;-66
2021/12/02 08:08:50;;;;;;;9.60;8.77;;;4.00;99.90;;;;;;5013467;28;20177;-67
2021/12/02 08:11:15;;;;;;;8.40;7.87;;;3.90;99.90;;;;;;5012430;28;20211;-67
2021/12/02 08:13:41;;;;;;;8.47;7.97;;;4.00;99.90;;;;;;5011408;28;20192;-67
2021/12/02 08:16:07;;;;;;;8.53;8.03;;;4.00;99.90;;;;;;5011972;28;20208;-68
2021/12/02 08:18:34;;;;;;;8.77;8.07;;;4.00;99.90;;;;;;5012684;28;20180;-68
2021/12/02 08:21:00;;;;;;;8.80;8.30;;;4.00;99.90;;;;;;5012516;28;20184;-67
2021/12/02 08:23:27;;;;;;;8.23;7.73;;;4.00;99.90;;;;;;5012636;28;20250;-67
2021/12/02 08:25:53;;;;;;;8.73;8.23;;;4.00;99.90;;;;;;5012239;28;20183;-67
2021/12/02 08:28:19;;;;;;;8.90;8.23;;;4.00;99.90;;;;;;5012388;28;20638;-68
2021/12/02 08:30:45;;;;;;;9.50;8.83;;;4.00;99.90;;;;;;5011850;28;20195;-66
2021/12/02 08:33:13;;;;;;;8.43;7.93;;;4.10;99.90;;;;;;5038532;22;20204;-64
2021/12/02 08:35:39;;;;;;;10.50;9.90;;;4.10;99.90;;;;;;5052205;28;20171;-64
2021/12/02 08:38:09;;;;;;;9.87;9.17;;;4.20;99.90;;;;;;5051804;28;20662;-65
2021/12/02 08:40:36;;;;;;;11.07;10.37;;;4.20;99.90;;;;;;5050647;28;20175;-64
2021/12/02 08:43:08;;;;;;;11.10;10.20;;;4.20;99.90;;;;;;5049698;28;20197;-64
2021/12/02 08:45:35;;;;;;;10.97;10.10;;;4.10;99.90;;;;;;5052033;28;20763;-64
2021/12/02 08:48:02;;;;;;;10.53;9.83;;;4.10;99.90;;;;;;5051416;28;20175;-64
2021/12/02 08:50:29;;;;;;;10.80;10.07;;;4.00;99.90;;;;;;5051602;28;20261;-64
2021/12/02 08:52:55;;;;;;;9.97;9.20;;;3.90;99.90;;;;;;5051021;28;20193;-64
2021/12/02 08:55:23;;;;;;;9.43;8.57;;;3.90;99.90;;;;;;5051123;28;20175;-64
2021/12/02 08:57:50;;;;;;;9.43;8.80;;;3.80;99.90;;;;;;5051311;28;20209;-63
2021/12/02 09:00:19;;;;;;;9.83;9.13;;;3.90;99.90;;;;;;5052348;28;20186;-66
2021/12/02 09:02:45;;;;;;;9.00;8.43;;;3.80;99.90;;;;;;5050941;28;20494;-64
2021/12/02 09:05:11;;;;;;;10.50;9.70;;;3.80;99.90;;;;;;5051309;28;20187;-65
2021/12/02 09:07:37;;;;;;;9.10;8.50;;;3.90;99.90;;;;;;5051161;28;20175;-65
2021/12/02 09:10:08;;;;;;;8.50;7.90;;;4.00;99.90;;;;;;5051265;28;20174;-65
2021/12/02 09:12:34;;;;;;;8.13;7.73;;;4.30;99.90;;;;;;5050843;28;20199;-65
2021/12/02 09:15:00;;;;;;;7.90;7.50;;;4.50;99.90;;;;;;5051070;28;20206;-65
2021/12/02 09:17:26;;;;;;;9.83;9.13;;;4.40;99.90;;;;;;5050926;28;20174;-65
2021/12/02 09:19:52;;;;;;;9.50;8.90;;;4.30;99.90;;;;;;5051239;28;20174;-65
2021/12/02 09:22:18;;;;;;;10.70;9.70;;;4.30;99.90;;;;;;5049494;28;20179;-65
2021/12/02 09:24:44;;;;;;;9.77;9.10;;;4.40;99.90;;;;;;5051129;28;20547;-65
2021/12/02 09:27:09;;;;;;;9.40;8.73;;;4.70;99.90;;;;;;5050767;28;20232;-65
2021/12/02 09:29:35;;;;;;;9.57;8.90;;;4.80;99.90;;;;;;5051143;28;20182;-65
2021/12/02 09:32:02;;;;;;;8.63;8.03;;;4.90;99.90;;;;;;5050055;28;20563;-65
2021/12/02 09:34:28;;;;;;;9.10;8.53;;;4.90;99.90;;;;;;5051109;28;20213;-65
2021/12/02 09:36:54;;;;;;;9.20;8.50;;;5.00;99.90;;;;;;5050806;28;20182;-66
2021/12/02 09:39:20;;;;;;;9.87;9.13;;;5.20;99.90;;;;;;5050924;28;20655;-65
2021/12/02 09:41:46;;;;;;;9.23;8.63;;;5.10;99.90;;;;;;5050993;28;20182;-64
2021/12/02 09:44:13;;;;;;;8.97;8.47;;;4.80;99.90;;;;;;5050692;28;20191;-64
2021/12/02 09:46:40;;;;;;;8.43;7.93;;;4.70;99.90;;;;;;5051044;28;20240;-65
2021/12/02 09:49:08;;;;;;;8.43;7.93;;;4.60;99.90;;;;;;5049654;28;20186;-65
2021/12/02 09:52:29;;;;;;;8.33;7.73;;;4.50;99.90;;;;;;5031226;28;20195;-64
2021/12/02 09:57:02;;;;;;;8.20;7.70;;;4.50;99.90;;;;;;5031092;28;20199;-65
2021/12/02 09:59:45;;;;;;;8.10;7.60;;;4.70;99.90;;;;;;5031185;28;20246;-65
2021/12/02 10:02:16;;;;;;;9.37;8.83;;;4.70;99.90;;;;;;5038384;28;20183;-65
2021/12/02 10:04:48;;;;;;;8.50;8.10;;;4.60;99.90;;;;;;5050587;28;20602;-65
2021/12/02 10:07:44;;;;;;;8.50;7.97;;;4.50;99.90;;;;;;5053983;28;20167;-65
2021/12/02 10:12:42;;;;;;;8.53;7.83;;;4.30;99.90;;;;;;5054626;28;20249;-65
2021/12/02 10:15:13;;;;;;;7.80;7.40;;;4.20;99.90;;;;;;5053051;28;20729;-65
2021/12/02 10:17:44;;;;;;;7.57;7.17;;;4.20;99.90;;;;;;5053635;28;20202;-65
2021/12/02 10:23:27;;;;;;;8.93;8.13;;;4.30;99.90;;;;;;5053637;28;20182;-64
2021/12/02 10:25:58;;;;;;;8.20;7.80;;;4.50;99.90;;;;;;5054448;28;20542;-65
2021/12/02 10:28:27;;;;;;;6.83;6.27;;;4.90;99.90;;;;;;5054500;28;20636;-65
2021/12/02 10:31:04;;;;;;;7.63;7.20;;;5.20;99.90;;;;;;5054102;28;20293;-65
2021/12/02 10:33:37;;;;;;;7.37;6.97;;;5.60;99.90;;;;;;5054068;28;20206;-65
2021/12/02 10:36:07;;;;;;;7.67;7.27;;;6.00;99.90;;;;;;5054317;28;20178;-66
2021/12/02 10:38:45;;;;;;;7.70;7.20;;;6.30;99.90;;;;;;5053535;28;20207;-66
2021/12/02 10:41:21;;;;;;;7.90;7.50;;;6.60;99.90;;;;;;5054174;28;20228;-65
2021/12/02 10:44:04;;;;;;;6.30;6.00;;;6.70;99.90;;;;;;5053288;28;20600;-65
2021/12/02 10:46:30;;;;;;;6.70;6.30;;;7.10;99.90;;;;;;5054219;28;20179;-65
2021/12/02 10:48:56;;;;;;;6.87;6.27;;;7.30;99.90;;;;;;5053755;28;20174;-66
2021/12/02 10:51:44;;;;;;;6.70;6.30;;;7.30;99.90;;;;;;5053917;28;20437;-65
2021/12/02 10:54:13;;;;;;;6.37;6.07;;;7.10;99.90;;;;;;5052251;28;20194;-64
2021/12/02 10:56:46;;;;;;;6.60;6.30;;;6.70;99.90;;;;;;5054102;28;20250;-65
2021/12/02 10:59:29;;;;;;;6.73;6.20;;;6.20;99.90;;;;;;5053722;28;20179;-66
2021/12/02 11:02:01;;;;;;;6.70;6.40;;;6.10;99.90;;;;;;5053676;28;20193;-64
2021/12/02 11:04:34;;;;;;;7.00;6.60;;;6.00;99.90;;;;;;5053615;28;20191;-65
2021/12/02 11:07:01;;;;;;;6.20;5.90;;;5.90;99.90;;;;;;5053568;28;20185;-66
2021/12/02 11:09:28;;;;;;;6.17;5.90;;;5.90;99.90;;;;;;5053674;28;20683;-65
2021/12/02 11:12:16;;;;;;;6.60;6.30;;;5.80;99.90;;;;;;5053371;28;20289;-66
2021/12/02 11:15:04;;;;;;;6.67;6.37;;;5.50;99.90;;;;;;5053413;28;20191;-65
2021/12/02 11:17:32;;;;;;;7.07;6.70;;;5.30;99.90;;;;;;5052724;28;20194;-65
2021/12/02 11:20:06;;;;;;;7.90;7.33;;;5.00;99.90;;;;;;5052851;28;20265;-65
2021/12/02 11:22:33;;;;;;;7.27;6.97;;;4.80;99.90;;;;;;5051855;28;20183;-65
2021/12/02 11:24:59;;;;;;;6.83;6.43;;;4.80;99.90;;;;;;5048330;28;20215;-65
2021/12/02 11:27:35;;;;;;;7.63;6.60;;;4.70;99.90;;;;;;5051975;28;20175;-65
2021/12/02 11:30:21;;;;;;;7.53;7.13;;;4.70;99.90;;;;;;5051616;28;20236;-64
2021/12/02 11:33:18;;;;;;;7.80;7.30;;;4.60;99.90;;;;;;5052434;28;20198;-65
2021/12/02 11:35:47;;;;;;;8.77;7.87;;;4.60;99.90;;;;;;5051687;28;20206;-65
2021/12/02 11:38:18;;;;;;;7.20;6.70;;;4.80;99.90;;;;;;5052922;28;20201;-65
2021/12/02 11:40:47;;;;;;;7.40;7.00;;;5.00;99.90;;;;;;5053048;28;20187;-65
2021/12/02 11:43:16;;;;;;;10.70;8.20;;;5.00;99.90;;;;;;5052270;28;20225;-65
2021/12/02 11:45:46;;;;;;;7.17;6.70;;;5.10;99.90;;;;;;5052911;28;20182;-65
2021/12/02 11:48:21;;;;;;;7.83;7.27;;;5.30;99.90;;;;;;5052697;28;20190;-65
2021/12/02 11:50:49;;;;;;;7.07;6.67;;;5.30;99.90;;;;;;5052795;28;20182;-65
2021/12/02 11:53:21;;;;;;;7.43;7.00;;;5.20;99.90;;;;;;5052308;28;20551;-65
2021/12/02 11:55:49;;;;;;;8.30;7.73;;;5.10;99.90;;;;;;5052733;28;20171;-65
2021/12/02 11:58:15;;;;;;;7.03;6.70;;;5.10;99.90;;;;;;5052361;28;20171;-65
2021/12/02 12:00:44;;;;;;;7.20;6.80;;;5.20;99.90;;;;;;5052116;28;20252;-65
2021/12/02 12:03:13;;;;;;;8.77;8.03;;;5.20;99.90;;;;;;5051590;28;20261;-65
2021/12/02 12:06:01;;;;;;;7.83;7.20;;;5.10;99.90;;;;;;5052457;28;20187;-65
2021/12/02 12:08:38;;;;;;;8.47;7.87;;;4.90;99.90;;;;;;5032123;28;20195;-65
2021/12/02 12:11:34;;;;;;;8.03;7.40;;;4.90;99.90;;;;;;5033340;28;20203;-65
2021/12/02 12:14:06;;;;;;;8.20;7.40;;;4.80;99.90;;;;;;5047237;28;20222;-65
2021/12/02 12:16:36;;;;;;;7.73;7.23;;;4.70;99.90;;;;;;5052126;28;20175;-65
2021/12/02 12:19:27;;;;;;;8.00;7.50;;;4.70;99.90;;;;;;5052141;28;20221;-65
2021/12/02 12:22:07;;;;;;;7.53;7.13;;;4.70;99.90;;;;;;5051854;28;20179;-65
2021/12/02 12:24:55;;;;;;;8.47;7.87;;;4.50;99.90;;;;;;5052014;28;20205;-65
2021/12/02 12:27:29;;;;;;;7.73;7.33;;;4.30;99.90;;;;;;5051293;28;20183;-65
2021/12/02 12:30:00;;;;;;;8.20;7.70;;;4.30;99.90;;;;;;5051221;28;20183;-65
2021/12/02 12:32:46;;;;;;;9.07;8.47;;;4.40;99.90;;;;;;5050425;28;20230;-65
2021/12/02 12:38:03;;;;;;;8.27;7.80;;;4.40;99.90;;;;;;5051898;28;20179;-64
2021/12/02 12:40:45;;;;;;;8.87;8.37;;;4.50;99.90;;;;;;5051618;28;20187;-65
2021/12/02 12:43:10;;;;;;;7.77;7.37;;;4.50;99.90;;;;;;5051396;28;20241;-65
2021/12/02 12:45:41;;;;;;;7.80;7.40;;;4.40;99.90;;;;;;5051609;28;20182;-65
2021/12/02 12:48:10;;;;;;;8.27;7.20;;;4.40;99.90;;;;;;5052485;28;20546;-65
2021/12/02 12:50:44;;;;;;;8.33;7.73;;;4.40;99.90;;;;;;5051498;28;20261;-64
2021/12/02 12:53:15;;;;;;;8.87;8.17;;;4.40;99.90;;;;;;5051095;28;20271;-64
2021/12/02 12:56:05;;;;;;;9.07;8.57;;;4.40;99.90;;;;;;5051252;28;20179;-65
2021/12/02 12:58:55;;;;;;;8.57;8.07;;;4.40;99.90;;;;;;5051260;28;20190;-65
2021/12/02 13:01:24;;;;;;;8.33;7.93;;;4.40;99.90;;;;;;5051519;28;20244;-65
2021/12/02 13:04:07;;;;;;;7.90;7.50;;;4.40;99.90;;;;;;5050202;28;20213;-65
2021/12/02 13:06:59;;;;;;;7.97;7.57;;;4.50;99.90;;;;;;5050169;28;20182;-65
2021/12/02 13:09:40;;;;;;;8.30;7.80;;;4.50;99.90;;;;;;5051058;28;20491;-65
2021/12/02 13:12:07;;;;;;;8.40;7.63;;;4.50;99.90;;;;;;5051162;28;20230;-63
2021/12/02 13:14:34;;;;;;;8.70;8.20;;;4.60;99.90;;;;;;5051005;28;20230;-65
2021/12/02 13:17:39;;;;;;;8.57;7.73;;;4.60;99.90;;;;;;5051271;28;20185;-64
2021/12/02 13:20:29;;;;;;;7.90;7.50;;;4.70;99.90;;;;;;5031282;28;20171;-64
2021/12/02 13:23:13;;;;;;;8.57;8.07;;;4.60;99.90;;;;;;5035374;28;20269;-65
2021/12/02 13:25:50;;;;;;;7.50;7.13;;;4.60;99.90;;;;;;5051046;28;20186;-65
2021/12/02 13:28:19;;;;;;;8.67;7.87;;;4.60;99.90;;;;;;5031420;28;20175;-65
2021/12/02 13:30:49;;;;;;;8.03;7.63;;;4.60;99.90;;;;;;5031053;28;20203;-65
2021/12/02 13:33:15;;;;;;;8.57;8.07;;;4.50;99.90;;;;;;5050708;28;20179;-65
2021/12/02 13:35:40;;;;;;;8.70;8.07;;;4.40;99.90;;;;;;5051327;28;20797;-65
2021/12/02 13:38:06;;;;;;;7.43;7.07;;;4.30;99.90;;;;;;5049631;28;20190;-65